^^
Station Historical Data
 
Daily Summary for February 19, 2017 Units:  Both    English   Metric
« Previous Day
Next Day »
Daily Weekly Monthly Yearly Custom
  Current: High: Low: Average:
Temperature: 56.6 °F /  13.7 °C 56.6 °F /  13.7 °C 51.3 °F /  10.7 °C 52.1 °F /  11.2 °C
Dew Point: 52.5 °F /  11.4 °C 52.5 °F /  11.4 °C 48.2 °F /  9 °C 49.3 °F /  9.6 °C
Humidity: 86% 92% 86% 90%
Wind Speed: 1.8mph /  2.9km/h 5.0mph /  8km/h - 1mph /  1.6km/h
Wind Gust: 4.6mph /  7.4km/h 9.2mph /  14.8km/h - -
WindSE - - ESE
Pressure: 29.91 in /  1012.8 hPa 29.91 in /  1012.8 hPa 29.72 in /  1006.3 hPa -
Precipitation: 0.20 in /  5.08 mm      
Historical Graphs
 
 
Tabular Data for February 19, 2017
Time Temperature Dew Point Pressure Wind Wind Speed Wind Gust Humidity Rainfall Rate (Hourly) solar Conditions
00:00 52.0 °F /  11.1 °C 48.6 °F /  9.2 °C 29.72in /  1006.3hPa Calm   5.0mph /  8km/h 88% 0.01in /  0.25mm WeatherDisplay:10.37 W/m2 -RA
00:05 52.0 °F /  11.1 °C 48.6 °F /  9.2 °C 29.72in /  1006.3hPa ESE 1.0mph /  1.6km/h 6.0mph /  9.7km/h 88% 0.00in /  0mm WeatherDisplay:10.37 W/m2 -RA
00:10 51.9 °F /  11.1 °C 48.5 °F /  9.2 °C 29.72in /  1006.3hPa Calm     88% 0.01in /  0.25mm WeatherDisplay:10.37 W/m2 -RA
00:15 51.9 °F /  11.1 °C 48.5 °F /  9.2 °C 29.72in /  1006.3hPa Calm   3.5mph /  5.6km/h 88% 0.01in /  0.25mm WeatherDisplay:10.37 W/m2 -RA
00:20 51.9 °F /  11.1 °C 48.5 °F /  9.2 °C 29.72in /  1006.3hPa East 0.4mph /  0.6km/h 4.6mph /  7.4km/h 88% 0.01in /  0.25mm WeatherDisplay:10.37 W/m2 -RA
00:25 51.9 °F /  11.1 °C 48.5 °F /  9.2 °C 29.72in /  1006.3hPa East 2.1mph /  3.4km/h 5.8mph /  9.3km/h 88% 0.01in /  0.25mm WeatherDisplay:10.37 W/m2 -RA
00:31 51.8 °F /  11 °C 48.4 °F /  9.1 °C 29.72in /  1006.3hPa Calm   1.2mph /  1.9km/h 88% 0.01in /  0.25mm WeatherDisplay:10.37 W/m2 -RA
00:36 51.8 °F /  11 °C 48.4 °F /  9.1 °C 29.72in /  1006.3hPa SE 3.7mph /  6km/h 8.1mph /  13km/h 88% 0.01in /  0.25mm WeatherDisplay:10.37 W/m2 -RA
00:41 51.7 °F /  10.9 °C 48.3 °F /  9.1 °C 29.72in /  1006.3hPa SE 0.2mph /  0.3km/h 2.0mph /  3.2km/h 88% 0.01in /  0.25mm WeatherDisplay:10.37 W/m2 -RA
00:46 51.7 °F /  10.9 °C 48.3 °F /  9.1 °C 29.73in /  1006.7hPa SE 1.8mph /  2.9km/h 5.8mph /  9.3km/h 88% 0.02in /  0.51mm WeatherDisplay:10.37 W/m2 -RA
00:51 51.7 °F /  10.9 °C 48.6 °F /  9.2 °C 29.73in /  1006.7hPa SE 1.9mph /  3.1km/h 6.9mph /  11.1km/h 89% 0.02in /  0.51mm WeatherDisplay:10.37 W/m2 -RA
00:56 51.7 °F /  10.9 °C 48.6 °F /  9.2 °C 29.73in /  1006.7hPa ESE 2.3mph /  3.7km/h 5.8mph /  9.3km/h 89% 0.01in /  0.25mm WeatherDisplay:10.37 W/m2 -RA
01:01 51.6 °F /  10.9 °C 48.2 °F /  9 °C 29.74in /  1007hPa SE 0.1mph /  0.2km/h 2.3mph /  3.7km/h 88% 0.02in /  0.51mm WeatherDisplay:10.37 W/m2 -RA
01:06 51.6 °F /  10.9 °C 48.2 °F /  9 °C 29.74in /  1007hPa Calm     88% 0.02in /  0.51mm WeatherDisplay:10.37 W/m2 -RA
01:11 51.6 °F /  10.9 °C 48.5 °F /  9.2 °C 29.74in /  1007hPa SE 0.1mph /  0.2km/h 7.0mph /  11.3km/h 89% 0.02in /  0.51mm WeatherDisplay:10.37 W/m2 -RA
01:16 51.6 °F /  10.9 °C 48.5 °F /  9.2 °C 29.74in /  1007hPa East 0.4mph /  0.6km/h 6.9mph /  11.1km/h 89% 0.02in /  0.51mm WeatherDisplay:10.37 W/m2 -RA
01:21 51.6 °F /  10.9 °C 48.5 °F /  9.2 °C 29.74in /  1007hPa Calm     89% 0.02in /  0.51mm WeatherDisplay:10.37 W/m2 -RA
01:26 51.6 °F /  10.9 °C 48.5 °F /  9.2 °C 29.74in /  1007hPa Calm     89% 0.02in /  0.51mm WeatherDisplay:10.37 W/m2 -RA
01:31 51.6 °F /  10.9 °C 48.5 °F /  9.2 °C 29.74in /  1007hPa ESE 0.1mph /  0.2km/h 3.0mph /  4.8km/h 89% 0.02in /  0.51mm WeatherDisplay:10.37 W/m2 -RA
01:36 51.6 °F /  10.9 °C 48.5 °F /  9.2 °C 29.74in /  1007hPa Calm     89% 0.02in /  0.51mm WeatherDisplay:10.37 W/m2 -RA
01:41 51.6 °F /  10.9 °C 48.5 °F /  9.2 °C 29.74in /  1007hPa Calm     89% 0.02in /  0.51mm WeatherDisplay:10.37 W/m2 -RA
01:46 51.6 °F /  10.9 °C 48.5 °F /  9.2 °C 29.74in /  1007hPa Calm   1.2mph /  1.9km/h 89% 0.01in /  0.25mm WeatherDisplay:10.37 W/m2 -RA
01:51 51.6 °F /  10.9 °C 48.5 °F /  9.2 °C 29.74in /  1007hPa Calm     89% 0.01in /  0.25mm WeatherDisplay:10.37 W/m2 -RA
01:56 51.6 °F /  10.9 °C 48.5 °F /  9.2 °C 29.74in /  1007hPa ESE 1.1mph /  1.8km/h 8.1mph /  13km/h 89% 0.01in /  0.25mm WeatherDisplay:10.37 W/m2 -RA
02:02 51.6 °F /  10.9 °C 48.5 °F /  9.2 °C 29.74in /  1007hPa ESE 0.2mph /  0.3km/h 1.2mph /  1.9km/h 89% 0.00in /  0mm WeatherDisplay:10.37 W/m2 -DZ
02:07 51.6 °F /  10.9 °C 48.5 °F /  9.2 °C 29.74in /  1007hPa ESE 1.4mph /  2.3km/h 6.9mph /  11.1km/h 89% 0.01in /  0.25mm WeatherDisplay:10.37 W/m2 -DZ
02:12 51.6 °F /  10.9 °C 48.5 °F /  9.2 °C 29.74in /  1007hPa East 0.4mph /  0.6km/h 5.8mph /  9.3km/h 89% 0.01in /  0.25mm WeatherDisplay:10.37 W/m2 -DZ
02:17 51.7 °F /  10.9 °C 48.6 °F /  9.2 °C 29.74in /  1007hPa ESE 1.6mph /  2.6km/h 6.9mph /  11.1km/h 89% 0.01in /  0.25mm WeatherDisplay:10.37 W/m2 -DZ
02:22 51.7 °F /  10.9 °C 48.6 °F /  9.2 °C 29.74in /  1007hPa ESE 0.9mph /  1.4km/h 4.6mph /  7.4km/h 89% 0.01in /  0.25mm WeatherDisplay:10.37 W/m2 -DZ
02:27 51.7 °F /  10.9 °C 48.6 °F /  9.2 °C 29.74in /  1007hPa Calm     89% 0.01in /  0.25mm WeatherDisplay:10.37 W/m2 -DZ
02:32 51.6 °F /  10.9 °C 48.5 °F /  9.2 °C 29.74in /  1007hPa ESE 0.6mph /  1km/h 3.5mph /  5.6km/h 89% 0.01in /  0.25mm WeatherDisplay:10.37 W/m2 -DZ
02:37 51.7 °F /  10.9 °C 48.6 °F /  9.2 °C 29.74in /  1007hPa ESE 2.4mph /  3.9km/h 5.8mph /  9.3km/h 89% 0.01in /  0.25mm WeatherDisplay:10.37 W/m2 -DZ
02:42 51.6 °F /  10.9 °C 48.5 °F /  9.2 °C 29.74in /  1007hPa Calm     89% 0.01in /  0.25mm WeatherDisplay:10.37 W/m2 -DZ
02:47 51.6 °F /  10.9 °C 48.5 °F /  9.2 °C 29.74in /  1007hPa Calm   2.3mph /  3.7km/h 89% 0.01in /  0.25mm WeatherDisplay:10.37 W/m2 -DZ
02:52 51.7 °F /  10.9 °C 48.6 °F /  9.2 °C 29.74in /  1007hPa Calm   3.5mph /  5.6km/h 89% 0.01in /  0.25mm WeatherDisplay:10.37 W/m2 -DZ
02:57 51.7 °F /  10.9 °C 48.6 °F /  9.2 °C 29.75in /  1007.3hPa Calm     89% 0.01in /  0.25mm WeatherDisplay:10.37 W/m2 -DZ
03:02 51.6 °F /  10.9 °C 48.5 °F /  9.2 °C 29.75in /  1007.3hPa ESE 1.2mph /  1.9km/h 4.6mph /  7.4km/h 89% 0.00in /  0mm WeatherDisplay:10.37 W/m2 -DZ
03:07 51.6 °F /  10.9 °C 48.8 °F /  9.3 °C 29.75in /  1007.3hPa ESE 0.4mph /  0.6km/h 3.5mph /  5.6km/h 90% 0.01in /  0.25mm WeatherDisplay:10.37 W/m2 -DZ
03:12 51.7 °F /  10.9 °C 48.9 °F /  9.4 °C 29.75in /  1007.3hPa ESE 2.3mph /  3.7km/h 8.1mph /  13km/h 90% 0.01in /  0.25mm WeatherDisplay:10.37 W/m2 -DZ
03:17 51.6 °F /  10.9 °C 48.8 °F /  9.3 °C 29.75in /  1007.3hPa ESE 2.7mph /  4.3km/h 4.6mph /  7.4km/h 90% 0.01in /  0.25mm WeatherDisplay:10.37 W/m2 -DZ
03:22 51.6 °F /  10.9 °C 48.8 °F /  9.3 °C 29.75in /  1007.3hPa ESE 3.9mph /  6.3km/h 5.0mph /  8km/h 90% 0.02in /  0.51mm WeatherDisplay:10.37 W/m2 -DZ
03:27 51.6 °F /  10.9 °C 48.8 °F /  9.3 °C 29.75in /  1007.3hPa ESE 1.4mph /  2.3km/h 3.5mph /  5.6km/h 90% 0.02in /  0.51mm WeatherDisplay:10.37 W/m2 -DZ
03:32 51.5 °F /  10.8 °C 48.7 °F /  9.3 °C 29.75in /  1007.3hPa Calm   6.9mph /  11.1km/h 90% 0.02in /  0.51mm WeatherDisplay:10.37 W/m2 -DZ
03:37 51.5 °F /  10.8 °C 48.7 °F /  9.3 °C 29.75in /  1007.3hPa ESE 3.0mph /  4.8km/h 4.6mph /  7.4km/h 90% 0.02in /  0.51mm WeatherDisplay:10.37 W/m2 -DZ
03:43 51.5 °F /  10.8 °C 48.7 °F /  9.3 °C 29.75in /  1007.3hPa ESE 2.8mph /  4.5km/h 6.0mph /  9.7km/h 90% 0.02in /  0.51mm WeatherDisplay:10.37 W/m2 -DZ
03:48 51.5 °F /  10.8 °C 48.7 °F /  9.3 °C 29.75in /  1007.3hPa SE 1.4mph /  2.3km/h 7.0mph /  11.3km/h 90% 0.02in /  0.51mm WeatherDisplay:10.37 W/m2 -DZ
03:53 51.4 °F /  10.8 °C 48.6 °F /  9.2 °C 29.75in /  1007.3hPa SE 1.1mph /  1.8km/h 5.0mph /  8km/h 90% 0.02in /  0.51mm WeatherDisplay:10.37 W/m2 -DZ
03:58 51.4 °F /  10.8 °C 48.6 °F /  9.2 °C 29.75in /  1007.3hPa ESE 3.0mph /  4.8km/h 5.8mph /  9.3km/h 90% 0.02in /  0.51mm WeatherDisplay:10.37 W/m2 -DZ
04:03 51.4 °F /  10.8 °C 48.6 °F /  9.2 °C 29.75in /  1007.3hPa ESE 3.4mph /  5.5km/h 6.9mph /  11.1km/h 90% 0.02in /  0.51mm WeatherDisplay:10.37 W/m2 -DZ
04:08 51.4 °F /  10.8 °C 48.6 °F /  9.2 °C 29.75in /  1007.3hPa ESE 5.0mph /  8km/h 8.1mph /  13km/h 90% 0.01in /  0.25mm WeatherDisplay:10.37 W/m2 -DZ
04:13 51.4 °F /  10.8 °C 48.6 °F /  9.2 °C 29.76in /  1007.7hPa ESE 3.0mph /  4.8km/h 3.5mph /  5.6km/h 90% 0.02in /  0.51mm WeatherDisplay:10.37 W/m2 -DZ
04:18 51.4 °F /  10.8 °C 48.6 °F /  9.2 °C 29.76in /  1007.7hPa Calm   8.0mph /  12.9km/h 90% 0.03in /  0.76mm WeatherDisplay:10.37 W/m2 -DZ
04:23 51.4 °F /  10.8 °C 48.6 °F /  9.2 °C 29.76in /  1007.7hPa ESE 1.0mph /  1.6km/h 5.8mph /  9.3km/h 90% 0.03in /  0.76mm WeatherDisplay:10.37 W/m2 -DZ
04:28 51.4 °F /  10.8 °C 48.6 °F /  9.2 °C 29.76in /  1007.7hPa ESE 1.2mph /  1.9km/h 3.5mph /  5.6km/h 90% 0.04in /  1.02mm WeatherDisplay:10.37 W/m2 -DZ
04:33 51.4 °F /  10.8 °C 48.6 °F /  9.2 °C 29.76in /  1007.7hPa Calm     90% 0.04in /  1.02mm WeatherDisplay:10.37 W/m2 -DZ
04:38 51.4 °F /  10.8 °C 48.6 °F /  9.2 °C 29.76in /  1007.7hPa Calm     90% 0.04in /  1.02mm WeatherDisplay:10.37 W/m2 -DZ
04:43 51.4 °F /  10.8 °C 48.6 °F /  9.2 °C 29.76in /  1007.7hPa Calm     90% 0.04in /  1.02mm WeatherDisplay:10.37 W/m2 -DZ
04:48 51.4 °F /  10.8 °C 48.6 °F /  9.2 °C 29.76in /  1007.7hPa Calm     90% 0.04in /  1.02mm WeatherDisplay:10.37 W/m2 -DZ
04:53 51.4 °F /  10.8 °C 48.6 °F /  9.2 °C 29.76in /  1007.7hPa Calm     90% 0.04in /  1.02mm WeatherDisplay:10.37 W/m2 -DZ
04:58 51.5 °F /  10.8 °C 48.7 °F /  9.3 °C 29.77in /  1008hPa Calm     90% 0.04in /  1.02mm WeatherDisplay:10.37 W/m2 -DZ
05:03 51.5 °F /  10.8 °C 48.7 °F /  9.3 °C 29.77in /  1008hPa Calm     90% 0.05in /  1.27mm WeatherDisplay:10.37 W/m2 -DZ
05:08 51.5 °F /  10.8 °C 48.7 °F /  9.3 °C 29.77in /  1008hPa Calm     90% 0.06in /  1.52mm WeatherDisplay:10.37 W/m2 -DZ
05:14 51.5 °F /  10.8 °C 48.7 °F /  9.3 °C 29.77in /  1008hPa Calm     90% 0.05in /  1.27mm WeatherDisplay:10.37 W/m2 -DZ
05:19 51.5 °F /  10.8 °C 48.7 °F /  9.3 °C 29.77in /  1008hPa Calm     90% 0.05in /  1.27mm WeatherDisplay:10.37 W/m2 -DZ
05:24 51.5 °F /  10.8 °C 48.7 °F /  9.3 °C 29.77in /  1008hPa Calm     90% 0.04in /  1.02mm WeatherDisplay:10.37 W/m2 -DZ
05:29 51.6 °F /  10.9 °C 48.8 °F /  9.3 °C 29.78in /  1008.4hPa Calm     90% 0.03in /  0.76mm WeatherDisplay:10.37 W/m2 -DZ
05:34 51.6 °F /  10.9 °C 48.8 °F /  9.3 °C 29.78in /  1008.4hPa SE 2.1mph /  3.4km/h 8.1mph /  13km/h 90% 0.03in /  0.76mm WeatherDisplay:10.37 W/m2 -DZ
05:39 51.5 °F /  10.8 °C 48.7 °F /  9.3 °C 29.78in /  1008.4hPa ESE 1.2mph /  1.9km/h 3.5mph /  5.6km/h 90% 0.03in /  0.76mm WeatherDisplay:10.37 W/m2 -DZ
05:44 51.5 °F /  10.8 °C 48.7 °F /  9.3 °C 29.79in /  1008.7hPa ESE 1.0mph /  1.6km/h 3.0mph /  4.8km/h 90% 0.04in /  1.02mm WeatherDisplay:10.37 W/m2 -DZ
05:49 51.5 °F /  10.8 °C 48.7 °F /  9.3 °C 29.79in /  1008.7hPa ESE 1.2mph /  1.9km/h 4.0mph /  6.4km/h 90% 0.06in /  1.52mm WeatherDisplay:10.37 W/m2 -DZ
05:54 51.5 °F /  10.8 °C 48.7 °F /  9.3 °C 29.79in /  1008.7hPa Calm     90% 0.07in /  1.78mm WeatherDisplay:10.37 W/m2 -DZ
05:59 51.4 °F /  10.8 °C 48.6 °F /  9.2 °C 29.79in /  1008.7hPa ESE 0.5mph /  0.8km/h 3.5mph /  5.6km/h 90% 0.06in /  1.52mm WeatherDisplay:10.37 W/m2 -DZ
06:04 51.4 °F /  10.8 °C 48.6 °F /  9.2 °C 29.79in /  1008.7hPa Calm   1.2mph /  1.9km/h 90% 0.08in /  2.03mm WeatherDisplay:10.37 W/m2 RA
06:09 51.4 °F /  10.8 °C 48.6 °F /  9.2 °C 29.79in /  1008.7hPa ESE 0.7mph /  1.1km/h 2.3mph /  3.7km/h 90% 0.07in /  1.78mm WeatherDisplay:10.37 W/m2 RA
06:14 51.4 °F /  10.8 °C 48.6 °F /  9.2 °C 29.79in /  1008.7hPa ESE 1.2mph /  1.9km/h 3.5mph /  5.6km/h 90% 0.08in /  2.03mm WeatherDisplay:10.37 W/m2 RA
06:19 51.4 °F /  10.8 °C 48.6 °F /  9.2 °C 29.79in /  1008.7hPa SE 2.2mph /  3.5km/h 3.5mph /  5.6km/h 90% 0.07in /  1.78mm WeatherDisplay:10.37 W/m2 RA
06:24 51.4 °F /  10.8 °C 48.6 °F /  9.2 °C 29.79in /  1008.7hPa SE 1.0mph /  1.6km/h 5.8mph /  9.3km/h 90% 0.08in /  2.03mm WeatherDisplay:10.37 W/m2 RA
06:30 51.4 °F /  10.8 °C 48.6 °F /  9.2 °C 29.80in /  1009hPa ESE 0.3mph /  0.5km/h 4.0mph /  6.4km/h 90% 0.08in /  2.03mm WeatherDisplay:10.37 W/m2 RA
06:35 51.4 °F /  10.8 °C 48.8 °F /  9.3 °C 29.80in /  1009hPa Calm   8.0mph /  12.9km/h 91% 0.00in /  0mm WeatherDisplay:10.37 W/m2
06:40 51.3 °F /  10.7 °C 48.8 °F /  9.3 °C 29.80in /  1009hPa Calm   3.5mph /  5.6km/h 91% 0.08in /  2.03mm WeatherDisplay:10.37 W/m2 CLR
06:45 51.3 °F /  10.7 °C 48.8 °F /  9.3 °C 29.80in /  1009hPa ESE 1.0mph /  1.6km/h 7.0mph /  11.3km/h 91% 0.00in /  0mm WeatherDisplay:10.37 W/m2
06:50 51.3 °F /  10.7 °C 48.8 °F /  9.3 °C 29.80in /  1009hPa Calm   6.0mph /  9.7km/h 91% 0.00in /  0mm WeatherDisplay:10.37 W/m2
06:55 51.3 °F /  10.7 °C 48.8 °F /  9.3 °C 29.80in /  1009hPa Calm   5.0mph /  8km/h 91% 0.00in /  0mm WeatherDisplay:10.37 W/m2
07:00 51.3 °F /  10.7 °C 48.8 °F /  9.3 °C 29.81in /  1009.4hPa Calm   2.0mph /  3.2km/h 91% 0.00in /  0mm WeatherDisplay:10.37 W/m2
07:05 51.3 °F /  10.7 °C 48.8 °F /  9.3 °C 29.81in /  1009.4hPa ESE 2.0mph /  3.2km/h 7.0mph /  11.3km/h 91% 0.00in /  0mm WeatherDisplay:10.37 W/m2 -RA
07:10 51.3 °F /  10.7 °C 48.8 °F /  9.3 °C 29.81in /  1009.4hPa Calm     91% 0.00in /  0mm WeatherDisplay:10.37 W/m2 -RA
07:15 51.3 °F /  10.7 °C 48.8 °F /  9.3 °C 29.81in /  1009.4hPa Calm     91% 0.00in /  0mm WeatherDisplay:10.37 W/m2 -RA
07:20 51.3 °F /  10.7 °C 48.8 °F /  9.3 °C 29.81in /  1009.4hPa Calm   4.0mph /  6.4km/h 91% 0.00in /  0mm WeatherDisplay:10.37 W/m2 -RA
07:25 51.3 °F /  10.7 °C 48.8 °F /  9.3 °C 29.81in /  1009.4hPa Calm   4.0mph /  6.4km/h 91% 0.00in /  0mm WeatherDisplay:10.37 W/m2 -RA
07:30 51.3 °F /  10.7 °C 48.8 °F /  9.3 °C 29.83in /  1010hPa Calm     91% 0.00in /  0mm WeatherDisplay:10.37 W/m2 -RA
07:35 51.3 °F /  10.7 °C 48.8 °F /  9.3 °C 29.83in /  1010hPa SE 1.0mph /  1.6km/h 5.0mph /  8km/h 91% 0.00in /  0mm WeatherDisplay:10.37 W/m2 -RA
07:40 51.4 °F /  10.8 °C 48.8 °F /  9.3 °C 29.83in /  1010hPa SE 1.0mph /  1.6km/h 5.0mph /  8km/h 91% 0.00in /  0mm WeatherDisplay:10.37 W/m2 -RA
07:45 51.4 °F /  10.8 °C 48.9 °F /  9.4 °C 29.83in /  1010hPa ESE 2.0mph /  3.2km/h 5.0mph /  8km/h 91% 0.00in /  0mm WeatherDisplay:10.37 W/m2 -RA
07:50 51.4 °F /  10.8 °C 48.9 °F /  9.4 °C 29.83in /  1010hPa ESE 1.0mph /  1.6km/h 6.0mph /  9.7km/h 91% 0.00in /  0mm WeatherDisplay:10.37 W/m2 -RA
07:55 51.4 °F /  10.8 °C 48.9 °F /  9.4 °C 29.83in /  1010hPa Calm   6.0mph /  9.7km/h 91% 0.00in /  0mm WeatherDisplay:10.37 W/m2 -RA
08:00 51.4 °F /  10.8 °C 48.9 °F /  9.4 °C 29.84in /  1010.4hPa Calm     91% 0.00in /  0mm WeatherDisplay:10.37 W/m2 -RA
08:05 51.4 °F /  10.8 °C 48.9 °F /  9.4 °C 29.84in /  1010.4hPa Calm     91% 0.00in /  0mm WeatherDisplay:10.37 W/m2 SCT
08:10 51.4 °F /  10.8 °C 48.9 °F /  9.4 °C 29.84in /  1010.4hPa Calm     91% 0.00in /  0mm WeatherDisplay:10.37 W/m2 SCT
08:15 51.5 °F /  10.8 °C 49.0 °F /  9.4 °C 29.85in /  1010.7hPa Calm     91% 0.00in /  0mm WeatherDisplay:10.37 W/m2 SCT
08:20 51.5 °F /  10.8 °C 49.0 °F /  9.4 °C 29.85in /  1010.7hPa Calm   2.3mph /  3.7km/h 91% 0.00in /  0mm WeatherDisplay:10.37 W/m2 SCT
08:25 51.6 °F /  10.9 °C 49.0 °F /  9.4 °C 29.85in /  1010.7hPa SE 1.0mph /  1.6km/h 6.0mph /  9.7km/h 91% 0.00in /  0mm WeatherDisplay:10.37 W/m2 SCT
08:30 51.7 °F /  10.9 °C 49.2 °F /  9.6 °C 29.86in /  1011.1hPa SE 2.0mph /  3.2km/h 6.0mph /  9.7km/h 91% 0.00in /  0mm WeatherDisplay:10.37 W/m2 SCT
08:35 51.7 °F /  10.9 °C 49.2 °F /  9.6 °C 29.86in /  1011.1hPa SE 1.0mph /  1.6km/h 5.0mph /  8km/h 91% 0.00in /  0mm WeatherDisplay:10.37 W/m2 SCT
08:40 51.8 °F /  11 °C 49.3 °F /  9.6 °C 29.86in /  1011.1hPa SE 1.0mph /  1.6km/h 6.0mph /  9.7km/h 91% 0.00in /  0mm WeatherDisplay:10.37 W/m2 SCT
08:45 51.9 °F /  11.1 °C 49.4 °F /  9.7 °C 29.86in /  1011.1hPa SE 5.0mph /  8km/h 7.0mph /  11.3km/h 91% 0.00in /  0mm WeatherDisplay:10.37 W/m2 SCT
08:50 52.0 °F /  11.1 °C 49.5 °F /  9.7 °C 29.86in /  1011.1hPa SE 3.0mph /  4.8km/h 6.0mph /  9.7km/h 91% 0.00in /  0mm WeatherDisplay:10.37 W/m2 SCT
08:55 52.2 °F /  11.2 °C 49.9 °F /  9.9 °C 29.86in /  1011.1hPa SE 1.0mph /  1.6km/h 5.0mph /  8km/h 92% 0.00in /  0mm WeatherDisplay:10.37 W/m2 SCT
09:00 52.3 °F /  11.3 °C 50.0 °F /  10 °C 29.87in /  1011.4hPa SE 3.0mph /  4.8km/h 7.0mph /  11.3km/h 92% 0.00in /  0mm WeatherDisplay:10.37 W/m2 SCT
09:05 52.4 °F /  11.3 °C 50.1 °F /  10.1 °C 29.87in /  1011.4hPa SE 1.0mph /  1.6km/h 6.0mph /  9.7km/h 92% 0.00in /  0mm WeatherDisplay:10.37 W/m2 OVC
09:10 52.5 °F /  11.4 °C 50.2 °F /  10.1 °C 29.87in /  1011.4hPa SE 5.0mph /  8km/h 8.0mph /  12.9km/h 92% 0.00in /  0mm WeatherDisplay:10.37 W/m2 OVC
09:15 52.6 °F /  11.4 °C 50.3 °F /  10.2 °C 29.87in /  1011.4hPa Calm   6.0mph /  9.7km/h 92% 0.00in /  0mm WeatherDisplay:10.37 W/m2 OVC
09:20 52.7 °F /  11.5 °C 50.4 °F /  10.2 °C 29.87in /  1011.4hPa SE 2.3mph /  3.7km/h 4.6mph /  7.4km/h 92% 0.00in /  0mm WeatherDisplay:10.37 W/m2 OVC
09:25 52.7 °F /  11.5 °C 50.4 °F /  10.2 °C 29.87in /  1011.4hPa SE 1.5mph /  2.4km/h 3.5mph /  5.6km/h 92% 0.00in /  0mm WeatherDisplay:10.37 W/m2 OVC
09:30 52.8 °F /  11.6 °C 50.5 °F /  10.3 °C 29.88in /  1011.7hPa SE 3.1mph /  5km/h 5.8mph /  9.3km/h 92% 0.00in /  0mm WeatherDisplay:10.37 W/m2 OVC
09:35 52.9 °F /  11.6 °C 50.6 °F /  10.3 °C 29.88in /  1011.7hPa Calm     92% 0.00in /  0mm WeatherDisplay:10.37 W/m2 OVC
09:40 52.9 °F /  11.6 °C 50.6 °F /  10.3 °C 29.88in /  1011.7hPa Calm     92% 0.00in /  0mm WeatherDisplay:10.37 W/m2 OVC
09:45 53.0 °F /  11.7 °C 50.7 °F /  10.4 °C 29.89in /  1012.1hPa SE 1.5mph /  2.4km/h 3.5mph /  5.6km/h 92% 0.00in /  0mm WeatherDisplay:10.37 W/m2 OVC
09:50 53.1 °F /  11.7 °C 50.8 °F /  10.4 °C 29.89in /  1012.1hPa SE 1.2mph /  1.9km/h 5.0mph /  8km/h 92% 0.00in /  0mm WeatherDisplay:10.37 W/m2 OVC
09:55 53.2 °F /  11.8 °C 50.9 °F /  10.5 °C 29.89in /  1012.1hPa Calm     92% 0.00in /  0mm WeatherDisplay:10.37 W/m2 OVC
10:00 53.5 °F /  11.9 °C 51.2 °F /  10.7 °C 29.89in /  1012.1hPa SE 0.2mph /  0.3km/h   92% 0.00in /  0mm WeatherDisplay:10.37 W/m2 OVC
10:05 53.6 °F /  12 °C 51.3 °F /  10.7 °C 29.89in /  1012.1hPa SE 1.7mph /  2.7km/h 4.6mph /  7.4km/h 92% 0.00in /  0mm WeatherDisplay:10.37 W/m2 OVC
10:10 53.6 °F /  12 °C 51.3 °F /  10.7 °C 29.89in /  1012.1hPa ESE 0.3mph /  0.5km/h 3.5mph /  5.6km/h 92% 0.00in /  0mm WeatherDisplay:10.37 W/m2 OVC
10:15 53.6 °F /  12 °C 51.3 °F /  10.7 °C 29.90in /  1012.4hPa Calm     92% 0.00in /  0mm WeatherDisplay:10.37 W/m2 OVC
10:25 53.9 °F /  12.2 °C 51.6 °F /  10.9 °C 29.90in /  1012.4hPa ESE 2.3mph /  3.7km/h 3.0mph /  4.8km/h 92% 0.00in /  0mm WeatherDisplay:10.37 W/m2 OVC
10:30 54.2 °F /  12.3 °C 51.9 °F /  11.1 °C 29.90in /  1012.4hPa Calm   3.5mph /  5.6km/h 92% 0.00in /  0mm WeatherDisplay:10.37 W/m2 OVC
10:36 54.5 °F /  12.5 °C 51.9 °F /  11.1 °C 29.90in /  1012.4hPa ESE 3.6mph /  5.8km/h 5.0mph /  8km/h 91% 0.00in /  0mm WeatherDisplay:10.37 W/m2 OVC
10:41 54.6 °F /  12.6 °C 52.0 °F /  11.1 °C 29.90in /  1012.4hPa ESE 1.5mph /  2.4km/h 4.6mph /  7.4km/h 91% 0.00in /  0mm WeatherDisplay:10.37 W/m2 OVC
10:46 54.8 °F /  12.7 °C 52.2 °F /  11.2 °C 29.90in /  1012.4hPa ESE 1.2mph /  1.9km/h 5.0mph /  8km/h 91% 0.00in /  0mm WeatherDisplay:10.37 W/m2 OVC
10:51 55.1 °F /  12.8 °C 52.5 °F /  11.4 °C 29.90in /  1012.4hPa ESE 0.5mph /  0.8km/h 2.3mph /  3.7km/h 91% 0.00in /  0mm WeatherDisplay:10.37 W/m2 OVC
10:56 55.2 °F /  12.9 °C 52.3 °F /  11.3 °C 29.90in /  1012.4hPa ESE 0.3mph /  0.5km/h 3.5mph /  5.6km/h 90% 0.00in /  0mm WeatherDisplay:10.37 W/m2 OVC
11:01 55.1 °F /  12.8 °C 51.9 °F /  11.1 °C 29.91in /  1012.8hPa ESE 2.6mph /  4.2km/h 5.0mph /  8km/h 89% 0.00in /  0mm WeatherDisplay:10.37 W/m2 OVC
11:06 55.1 °F /  12.8 °C 51.9 °F /  11.1 °C 29.91in /  1012.8hPa ESE 4.2mph /  6.8km/h 6.0mph /  9.7km/h 89% 0.00in /  0mm WeatherDisplay:10.37 W/m2 OVC
11:11 55.0 °F /  12.8 °C 51.8 °F /  11 °C 29.91in /  1012.8hPa ESE 1.1mph /  1.8km/h 4.0mph /  6.4km/h 89% 0.00in /  0mm WeatherDisplay:10.37 W/m2 OVC
11:16 55.2 °F /  12.9 °C 52.0 °F /  11.1 °C 29.91in /  1012.8hPa ESE 4.8mph /  7.7km/h 9.2mph /  14.8km/h 89% 0.00in /  0mm WeatherDisplay:10.37 W/m2 OVC
11:21 55.6 °F /  13.1 °C 52.1 °F /  11.2 °C 29.91in /  1012.8hPa ESE 1.8mph /  2.9km/h 7.0mph /  11.3km/h 88% 0.00in /  0mm WeatherDisplay:10.37 W/m2 OVC
11:26 56.0 °F /  13.3 °C 52.5 °F /  11.4 °C 29.91in /  1012.8hPa ESE 0.2mph /  0.3km/h 4.6mph /  7.4km/h 88% 0.00in /  0mm WeatherDisplay:10.37 W/m2 OVC
11:31 56.3 °F /  13.5 °C 52.5 °F /  11.4 °C 29.91in /  1012.8hPa ESE 2.5mph /  4km/h 4.6mph /  7.4km/h 87% 0.00in /  0mm WeatherDisplay:10.37 W/m2 OVC
11:36 56.4 °F /  13.6 °C 52.3 °F /  11.3 °C 29.91in /  1012.8hPa SE 3.2mph /  5.1km/h 8.1mph /  13km/h 86% 0.00in /  0mm WeatherDisplay:10.37 W/m2 OVC
11:41 56.6 °F /  13.7 °C 52.5 °F /  11.4 °C 29.91in /  1012.8hPa SE 1.8mph /  2.9km/h 4.6mph /  7.4km/h 86% 0.00in /  0mm WeatherDisplay:10.37 W/m2 OVC
Youngtown, Arizona, USA
Compliments of Weather Underground - 2.75 mb